Time;durP1;ratioP1;P1;durP2;ratioP2;P2;SDS_P1;SDS_P2;PMS_P1;PMS_P2;Temp;Humidity;BMP_temperature;BMP_pressure;BME280_temperature;BME280_humidity;BME280_pressure;Samples;Min_cycle;Max_cycle;Signal;HPM_P1;HPM_P2
2021/03/03 00:00:13;;;;;;;50.47;25.50;;;7.20;99.90;;;;;;4983778;28;20789;-52
2021/03/03 00:02:42;;;;;;;45.43;24.20;;;7.20;99.90;;;;;;4983720;28;20900;-48
2021/03/03 00:05:12;;;;;;;44.97;24.20;;;7.20;99.90;;;;;;4984774;28;20472;-51
2021/03/03 00:07:41;;;;;;;40.30;23.10;;;7.10;99.90;;;;;;4983795;28;20791;-48
2021/03/03 00:10:10;;;;;;;42.40;24.47;;;7.10;99.90;;;;;;4984550;28;20795;-50
2021/03/03 00:12:38;;;;;;;43.00;25.07;;;7.10;99.90;;;;;;4984340;28;20459;-52
2021/03/03 00:15:08;;;;;;;37.90;22.57;;;7.10;99.90;;;;;;4983828;28;20465;-52
2021/03/03 00:17:36;;;;;;;46.43;24.73;;;7.00;99.90;;;;;;4984620;28;20458;-51
2021/03/03 00:20:04;;;;;;;39.70;21.97;;;7.00;99.90;;;;;;4984401;28;20876;-49
2021/03/03 00:22:32;;;;;;;48.43;23.17;;;6.90;99.90;;;;;;4983958;28;20960;-50
2021/03/03 00:25:02;;;;;;;42.80;22.53;;;6.90;99.90;;;;;;4984623;28;20489;-49
2021/03/03 00:27:30;;;;;;;45.20;25.27;;;6.90;99.90;;;;;;4984494;28;20505;-48
2021/03/03 00:29:58;;;;;;;39.03;22.07;;;6.80;99.90;;;;;;4983578;28;20454;-50
2021/03/03 00:32:27;;;;;;;41.73;22.60;;;6.80;99.90;;;;;;4984207;28;20911;-53
2021/03/03 00:34:55;;;;;;;43.37;21.80;;;6.80;99.90;;;;;;4984172;28;20475;-52
2021/03/03 00:37:23;;;;;;;34.27;20.27;;;6.80;99.90;;;;;;4983717;28;20830;-51
2021/03/03 00:39:52;;;;;;;33.90;19.70;;;6.80;99.90;;;;;;4976600;28;20471;-49
2021/03/03 00:42:20;;;;;;;40.53;21.53;;;6.80;99.90;;;;;;4984580;28;20485;-52
2021/03/03 00:44:48;;;;;;;42.03;20.27;;;6.80;99.90;;;;;;4979662;28;20459;-47
2021/03/03 00:47:16;;;;;;;43.27;21.37;;;6.80;99.90;;;;;;4964757;28;20777;-47
2021/03/03 00:49:42;;;;;;;38.53;21.70;;;6.80;99.90;;;;;;4991236;28;20468;-46
2021/03/03 00:52:10;;;;;;;45.80;22.30;;;6.80;99.90;;;;;;4998945;28;20862;-52
2021/03/03 00:54:38;;;;;;;37.80;22.13;;;6.80;99.90;;;;;;4998873;28;20442;-51
2021/03/03 00:57:06;;;;;;;40.70;22.50;;;6.70;99.90;;;;;;5001225;28;20858;-47
2021/03/03 00:59:34;;;;;;;42.50;22.10;;;6.60;99.90;;;;;;4998664;28;20438;-49
2021/03/03 01:02:01;;;;;;;38.07;22.13;;;6.60;99.90;;;;;;4989715;28;20551;-50
2021/03/03 01:04:29;;;;;;;48.10;23.83;;;6.50;99.90;;;;;;4996608;28;20454;-50
2021/03/03 01:15:23;;;;;;;38.23;20.30;;;6.30;99.90;;;;;;4990019;28;20519;-48
2021/03/03 01:17:52;;;;;;;34.53;21.97;;;6.30;99.90;;;;;;4990404;28;20462;-48
2021/03/03 01:20:20;;;;;;;35.77;20.30;;;6.40;99.90;;;;;;4983556;28;20868;-48
2021/03/03 01:22:47;;;;;;;31.53;20.53;;;6.30;99.90;;;;;;4998917;28;20496;-49
2021/03/03 01:25:15;;;;;;;39.17;20.83;;;6.30;99.90;;;;;;5001100;28;20446;-48
2021/03/03 01:27:42;;;;;;;29.90;18.97;;;6.40;99.90;;;;;;4999448;28;20450;-49
2021/03/03 01:30:13;;;;;;;40.97;22.60;;;6.30;99.90;;;;;;4999906;28;20450;-49
2021/03/03 01:32:40;;;;;;;37.00;20.40;;;6.30;99.90;;;;;;4988128;28;20910;-51
2021/03/03 01:35:09;;;;;;;49.23;22.70;;;6.40;99.90;;;;;;4998372;28;20466;-53
2021/03/03 01:37:36;;;;;;;34.60;18.57;;;6.30;99.90;;;;;;4998500;28;20468;-46
2021/03/03 01:40:05;;;;;;;39.17;19.17;;;6.30;99.90;;;;;;5004557;28;20841;-48
2021/03/03 01:42:32;;;;;;;38.17;21.87;;;6.30;99.90;;;;;;5002068;28;21028;-51
2021/03/03 01:45:00;;;;;;;35.53;20.50;;;6.30;99.90;;;;;;4998470;28;20786;-51
2021/03/03 01:47:30;;;;;;;38.83;22.30;;;6.30;99.90;;;;;;4990582;28;20793;-52
2021/03/03 01:49:58;;;;;;;38.77;21.10;;;6.30;99.90;;;;;;4988478;28;20473;-49
2021/03/03 01:52:27;;;;;;;40.70;21.37;;;6.30;99.90;;;;;;4982166;28;20451;-49
2021/03/03 01:54:56;;;;;;;33.87;21.50;;;6.20;99.90;;;;;;4982409;28;20764;-52
2021/03/03 01:57:24;;;;;;;37.13;19.67;;;6.20;99.90;;;;;;4988389;28;20873;-51
2021/03/03 01:59:53;;;;;;;38.90;21.70;;;6.20;99.90;;;;;;4995837;28;20925;-50
2021/03/03 02:02:24;;;;;;;38.90;20.17;;;6.10;99.90;;;;;;4981389;28;20784;-49
2021/03/03 02:04:54;;;;;;;39.80;20.37;;;6.10;99.90;;;;;;4981413;28;20439;-50
2021/03/03 02:07:26;;;;;;;51.33;21.77;;;6.10;99.90;;;;;;4981711;28;20850;-51
2021/03/03 02:10:02;;;;;;;35.50;19.10;;;6.10;99.90;;;;;;5002863;28;20477;-48
2021/03/03 02:12:36;;;;;;;36.73;19.20;;;6.00;99.90;;;;;;5002320;28;20774;-51
2021/03/03 02:15:07;;;;;;;38.73;21.53;;;6.10;99.90;;;;;;5001405;28;20790;-48
2021/03/03 02:17:37;;;;;;;40.40;20.37;;;6.10;99.90;;;;;;5000808;28;20465;-49
2021/03/03 02:25:24;;;;;;;38.87;19.67;;;6.00;99.90;;;;;;5553715;23;20543;-52
2021/03/03 02:40:58;;;;;;;49.93;20.00;;;5.70;99.90;;;;;;5151207;23;20489;-50
2021/03/03 02:43:27;;;;;;;31.10;19.03;;;5.60;99.90;;;;;;4998870;28;20961;-48
2021/03/03 02:45:56;;;;;;;36.90;18.20;;;5.50;99.90;;;;;;5001374;28;20461;-48
2021/03/03 02:48:23;;;;;;;28.17;17.30;;;5.50;99.90;;;;;;4996418;28;20442;-51
2021/03/03 02:50:52;;;;;;;35.67;18.30;;;5.50;99.90;;;;;;4987461;28;20505;-47
2021/03/03 02:53:20;;;;;;;31.57;17.70;;;5.50;99.90;;;;;;4995586;28;20446;-48
2021/03/03 02:55:48;;;;;;;30.77;15.50;;;5.50;99.90;;;;;;4998940;28;20759;-47
2021/03/03 02:58:17;;;;;;;29.27;15.90;;;5.50;99.90;;;;;;4998949;28;20827;-49
2021/03/03 03:00:46;;;;;;;34.53;17.70;;;5.50;99.90;;;;;;4996290;28;20438;-50
2021/03/03 03:03:22;;;;;;;29.27;15.90;;;5.50;99.90;;;;;;4993056;28;20815;-52
2021/03/03 03:05:55;;;;;;;35.60;16.13;;;5.50;99.90;;;;;;4996977;28;20473;-51
2021/03/03 03:08:23;;;;;;;31.10;16.97;;;5.40;99.90;;;;;;4999340;28;20887;-53
2021/03/03 03:10:52;;;;;;;29.90;16.07;;;5.40;99.90;;;;;;4995505;28;20460;-47
2021/03/03 03:13:23;;;;;;;29.57;17.83;;;5.40;99.90;;;;;;4995524;28;20778;-51
2021/03/03 03:28:49;;;;;;;35.77;18.73;;;5.20;99.90;;;;;;5789376;22;20532;-46
2021/03/03 03:31:19;;;;;;;38.40;15.80;;;5.20;99.90;;;;;;5017852;28;20458;-48
2021/03/03 03:33:47;;;;;;;25.20;16.43;;;5.20;99.90;;;;;;5023281;28;20517;-48
2021/03/03 03:36:15;;;;;;;35.73;16.73;;;5.20;99.90;;;;;;5005039;28;20446;-52
2021/03/03 03:38:44;;;;;;;32.90;17.20;;;5.10;99.90;;;;;;5003852;28;20457;-51
2021/03/03 03:41:12;;;;;;;26.77;15.27;;;5.10;99.90;;;;;;5005187;28;20817;-49
2021/03/03 03:54:04;;;;;;;28.93;16.13;;;5.10;99.90;;;;;;5520734;23;20297;-51
2021/03/03 03:56:32;;;;;;;31.43;16.47;;;5.10;99.90;;;;;;4976499;28;20808;-48
2021/03/03 04:14:34;;;;;;;39.70;17.57;;;5.10;99.90;;;;;;5319436;22;20957;-48
2021/03/03 04:17:02;;;;;;;27.67;16.43;;;5.10;99.90;;;;;;5004398;28;20838;-47
2021/03/03 04:24:41;;;;;;;23.90;15.83;;;5.10;99.90;;;;;;5841406;23;20824;-46
2021/03/03 04:53:04;;;;;;;36.20;16.43;;;4.80;99.90;;;;;;5059538;22;20995;-48
2021/03/03 04:55:31;;;;;;;27.73;14.20;;;4.70;99.90;;;;;;5005552;28;20766;-50
2021/03/03 04:57:59;;;;;;;29.83;15.60;;;4.70;99.90;;;;;;5014639;28;20469;-49
2021/03/03 05:00:27;;;;;;;27.33;14.10;;;4.70;99.90;;;;;;5009036;28;20537;-47
2021/03/03 05:02:55;;;;;;;30.93;19.30;;;4.70;99.90;;;;;;5005447;28;20833;-49
2021/03/03 05:05:22;;;;;;;30.00;15.83;;;4.70;99.90;;;;;;5008874;28;20936;-49
2021/03/03 05:07:50;;;;;;;30.50;15.33;;;4.50;99.90;;;;;;5008992;28;20445;-50
2021/03/03 05:10:19;;;;;;;34.70;16.30;;;4.50;99.90;;;;;;5010053;28;20462;-53
2021/03/03 05:12:47;;;;;;;32.30;14.90;;;4.50;99.90;;;;;;5007813;28;20778;-52
2021/03/03 05:15:15;;;;;;;27.17;15.70;;;4.50;99.90;;;;;;5022024;28;20441;-51
2021/03/03 05:17:43;;;;;;;27.13;15.47;;;4.40;99.90;;;;;;5017864;28;20453;-47
2021/03/03 05:20:12;;;;;;;31.50;15.97;;;4.40;99.90;;;;;;5027754;28;20484;-47
2021/03/03 05:22:39;;;;;;;35.50;15.47;;;4.30;99.90;;;;;;5019024;28;20938;-47
2021/03/03 05:25:07;;;;;;;25.43;14.70;;;4.30;99.90;;;;;;5010074;28;21736;-46
2021/03/03 05:27:36;;;;;;;29.57;16.07;;;4.20;99.90;;;;;;5017116;28;20456;-45
2021/03/03 05:30:05;;;;;;;25.50;15.80;;;4.20;99.90;;;;;;5015636;28;20446;-47
2021/03/03 05:32:36;;;;;;;33.90;16.37;;;4.20;99.90;;;;;;5018702;28;21069;-53
2021/03/03 05:35:05;;;;;;;26.93;15.73;;;4.20;99.90;;;;;;5005295;28;20815;-48
2021/03/03 05:37:34;;;;;;;36.53;18.10;;;4.30;99.90;;;;;;5007108;28;20978;-51
2021/03/03 05:50:46;;;;;;;29.40;15.40;;;4.20;99.90;;;;;;5523419;22;20871;-50
2021/03/03 05:53:15;;;;;;;31.93;16.20;;;4.20;99.90;;;;;;5000365;28;20757;-50
2021/03/03 05:55:43;;;;;;;32.20;17.70;;;4.10;99.90;;;;;;5016425;28;20455;-50
2021/03/03 05:58:11;;;;;;;36.17;16.43;;;4.10;99.90;;;;;;5010990;28;20533;-52
2021/03/03 06:00:39;;;;;;;34.40;17.20;;;4.00;99.90;;;;;;5015289;28;20466;-46
2021/03/03 06:03:06;;;;;;;36.30;17.03;;;3.90;99.90;;;;;;5008268;28;20486;-52
2021/03/03 06:05:35;;;;;;;26.93;15.33;;;4.00;99.90;;;;;;4996915;28;20489;-49
2021/03/03 06:08:05;;;;;;;31.37;14.60;;;4.00;99.90;;;;;;4995941;28;20526;-52
2021/03/03 06:10:33;;;;;;;32.30;16.93;;;4.00;99.90;;;;;;4996017;28;20449;-49
2021/03/03 06:13:04;;;;;;;31.37;17.80;;;3.90;99.90;;;;;;4995683;28;20482;-51
2021/03/03 06:15:32;;;;;;;29.33;17.40;;;3.90;99.90;;;;;;4995745;28;20784;-51
2021/03/03 06:17:59;;;;;;;30.07;15.90;;;3.90;99.90;;;;;;4995863;28;20451;-46
2021/03/03 06:20:27;;;;;;;30.53;15.30;;;3.80;99.90;;;;;;4995784;28;20514;-50
2021/03/03 06:23:12;;;;;;;25.93;14.50;;;3.80;99.90;;;;;;5012758;28;20802;-48
2021/03/03 06:25:41;;;;;;;31.23;15.40;;;3.80;99.90;;;;;;5027323;28;20802;-49
2021/03/03 06:28:10;;;;;;;34.20;17.17;;;3.80;99.90;;;;;;5032920;28;20812;-47
2021/03/03 06:30:39;;;;;;;26.83;17.93;;;3.80;99.90;;;;;;5025285;28;20860;-46
2021/03/03 06:33:08;;;;;;;35.50;18.37;;;3.70;99.90;;;;;;5006844;28;20520;-49
2021/03/03 06:35:40;;;;;;;30.03;17.77;;;3.80;99.90;;;;;;4986678;28;20463;-50
2021/03/03 06:38:10;;;;;;;28.83;16.03;;;3.80;99.90;;;;;;4982173;28;20835;-49
2021/03/03 06:40:52;;;;;;;31.63;16.67;;;3.80;99.90;;;;;;4990105;28;20445;-47
2021/03/03 06:43:25;;;;;;;29.23;15.27;;;3.90;99.90;;;;;;5026421;28;20481;-46
2021/03/03 06:45:54;;;;;;;31.73;16.87;;;3.90;99.90;;;;;;5025699;28;20449;-50
2021/03/03 06:48:38;;;;;;;34.53;18.87;;;3.80;99.90;;;;;;5026079;28;20453;-48
2021/03/03 06:51:29;;;;;;;33.50;17.73;;;3.80;99.90;;;;;;5026452;28;20968;-50
2021/03/03 06:53:58;;;;;;;25.00;16.93;;;3.90;99.90;;;;;;5022007;28;20825;-49
2021/03/03 06:56:41;;;;;;;30.00;16.93;;;3.90;99.90;;;;;;5024547;28;20818;-46
2021/03/03 06:59:18;;;;;;;30.30;16.97;;;3.90;99.90;;;;;;5023875;28;20457;-46
2021/03/03 07:01:46;;;;;;;33.83;17.00;;;3.90;99.90;;;;;;5018530;28;20474;-53
2021/03/03 07:04:23;;;;;;;39.50;18.13;;;4.00;99.90;;;;;;5004897;28;20454;-50
2021/03/03 07:07:13;;;;;;;32.60;18.73;;;4.00;99.90;;;;;;5008237;28;20491;-45
2021/03/03 07:09:40;;;;;;;31.63;17.10;;;4.10;99.90;;;;;;5000124;28;20443;-51
2021/03/03 07:12:11;;;;;;;37.83;19.73;;;4.10;99.90;;;;;;5023471;28;20463;-50
2021/03/03 07:14:39;;;;;;;36.60;19.67;;;4.20;99.90;;;;;;5024731;28;20432;-50
2021/03/03 07:17:14;;;;;;;37.70;19.30;;;4.20;99.90;;;;;;5038649;28;20460;-52
2021/03/03 07:19:44;;;;;;;34.00;19.37;;;4.20;99.90;;;;;;5020706;28;20450;-52
2021/03/03 07:22:26;;;;;;;37.23;21.83;;;4.20;99.90;;;;;;4991609;28;20978;-46
2021/03/03 07:24:56;;;;;;;38.90;18.40;;;4.20;99.90;;;;;;4978445;28;20479;-54
2021/03/03 07:27:25;;;;;;;34.33;19.40;;;4.30;99.90;;;;;;4979537;28;20812;-48
2021/03/03 07:29:54;;;;;;;38.63;23.10;;;4.30;99.90;;;;;;4982600;28;20489;-52
2021/03/03 07:32:22;;;;;;;34.30;18.20;;;4.30;99.90;;;;;;4980692;28;20486;-47
2021/03/03 07:34:52;;;;;;;38.40;20.07;;;4.40;99.90;;;;;;4985453;28;20791;-50
2021/03/03 07:37:21;;;;;;;35.83;19.17;;;4.40;99.90;;;;;;4983003;28;20485;-52
2021/03/03 07:39:55;;;;;;;36.90;20.73;;;4.40;99.90;;;;;;4983525;28;20485;-49
2021/03/03 07:42:26;;;;;;;41.90;21.83;;;4.40;99.90;;;;;;4984005;28;20807;-50
2021/03/03 07:44:57;;;;;;;32.67;20.03;;;4.50;99.90;;;;;;4992311;28;20469;-49
2021/03/03 07:47:27;;;;;;;40.80;20.03;;;4.60;99.90;;;;;;5002753;28;20652;-50
2021/03/03 07:49:59;;;;;;;41.07;22.80;;;4.70;99.90;;;;;;5003053;28;20842;-47
2021/03/03 07:52:28;;;;;;;34.53;19.13;;;4.70;99.90;;;;;;5005466;28;20546;-49
2021/03/03 07:54:59;;;;;;;36.07;18.93;;;4.80;99.90;;;;;;5006881;28;20450;-48
2021/03/03 07:57:28;;;;;;;39.53;21.40;;;4.80;99.90;;;;;;5014262;28;21219;-46
2021/03/03 07:59:57;;;;;;;33.90;21.03;;;4.90;99.90;;;;;;5020962;28;20464;-50
2021/03/03 08:02:44;;;;;;;45.30;23.87;;;4.90;99.90;;;;;;4999398;28;20504;-48
2021/03/03 08:05:14;;;;;;;32.50;19.27;;;5.00;99.90;;;;;;5008489;28;20772;-46
2021/03/03 08:07:41;;;;;;;31.30;20.40;;;5.00;99.90;;;;;;5023001;28;20528;-46
2021/03/03 08:10:32;;;;;;;31.57;19.57;;;5.00;99.90;;;;;;5012506;28;20458;-49
2021/03/03 08:13:06;;;;;;;44.20;22.53;;;5.10;99.90;;;;;;5016809;28;20446;-50
2021/03/03 08:15:40;;;;;;;37.87;21.67;;;5.10;99.90;;;;;;5012297;28;20446;-50
2021/03/03 08:18:27;;;;;;;35.97;19.30;;;5.30;99.90;;;;;;5023349;28;20452;-51
2021/03/03 08:20:57;;;;;;;32.77;21.70;;;5.30;99.90;;;;;;5001422;28;20441;-45
2021/03/03 08:23:45;;;;;;;36.63;22.83;;;5.40;99.90;;;;;;4993863;28;20479;-47
2021/03/03 08:26:32;;;;;;;35.50;19.50;;;5.50;99.90;;;;;;5009769;28;20453;-48
2021/03/03 08:29:21;;;;;;;33.23;20.73;;;6.20;99.90;;;;;;5006840;28;20781;-46
2021/03/03 08:31:49;;;;;;;38.37;23.40;;;6.40;99.90;;;;;;4992604;28;20958;-46
2021/03/03 08:34:18;;;;;;;36.97;22.17;;;6.30;99.90;;;;;;4990967;28;20809;-48
2021/03/03 08:37:03;;;;;;;39.20;21.93;;;6.30;99.90;;;;;;5003496;28;20463;-46
2021/03/03 08:39:37;;;;;;;32.43;20.40;;;6.30;99.90;;;;;;5009743;28;20454;-47
2021/03/03 08:42:46;;;;;;;41.80;20.33;;;6.40;99.90;;;;;;5009772;28;20474;-47
2021/03/03 08:45:17;;;;;;;46.63;22.37;;;6.40;99.90;;;;;;4975538;28;20785;-49
2021/03/03 08:47:56;;;;;;;45.57;23.90;;;6.40;99.90;;;;;;5006400;28;20522;-45
2021/03/03 08:50:39;;;;;;;34.90;22.07;;;6.50;99.90;;;;;;5004501;28;20461;-49
2021/03/03 08:53:25;;;;;;;37.87;22.20;;;6.50;99.90;;;;;;5011659;28;20454;-53
2021/03/03 08:55:53;;;;;;;40.03;20.23;;;6.60;99.90;;;;;;4995355;28;20985;-45
2021/03/03 08:58:49;;;;;;;42.67;22.27;;;6.70;99.90;;;;;;4993043;28;20888;-47
2021/03/03 09:01:19;;;;;;;43.43;22.60;;;6.80;99.90;;;;;;4999392;28;20794;-46
2021/03/03 09:03:49;;;;;;;42.07;20.90;;;6.90;99.90;;;;;;5006077;28;20964;-48
2021/03/03 09:09:25;;;;;;;40.87;22.53;;;7.20;99.90;;;;;;4998751;28;20428;-45
2021/03/03 09:12:05;;;;;;;43.23;24.73;;;7.30;99.90;;;;;;5001730;28;20779;-47
2021/03/03 09:14:34;;;;;;;35.80;22.37;;;7.50;99.90;;;;;;5013073;28;20464;-48
2021/03/03 09:17:05;;;;;;;38.00;21.40;;;7.90;99.90;;;;;;5009689;28;20865;-48
2021/03/03 09:19:36;;;;;;;34.37;21.20;;;8.50;99.90;;;;;;5009976;28;20525;-47
2021/03/03 09:22:17;;;;;;;30.20;20.13;;;9.60;99.90;;;;;;5009976;28;20817;-45
2021/03/03 09:24:47;;;;;;;41.33;20.10;;;11.20;99.90;;;;;;5003985;28;20919;-46
2021/03/03 09:27:15;;;;;;;32.27;20.87;;;12.90;99.90;;;;;;4999464;28;20922;-51
2021/03/03 09:29:44;;;;;;;34.10;22.73;;;14.40;99.90;;;;;;4998621;28;20797;-49
2021/03/03 09:32:16;;;;;;;36.83;25.20;;;15.10;99.90;;;;;;4995671;28;20533;-50
2021/03/03 09:34:46;;;;;;;43.50;27.70;;;14.70;99.10;;;;;;5010110;28;20449;-49
2021/03/03 09:37:15;;;;;;;32.33;22.23;;;13.90;99.80;;;;;;5008031;28;20941;-52
2021/03/03 09:39:43;;;;;;;33.90;23.97;;;13.20;99.90;;;;;;5008246;28;20465;-45
2021/03/03 09:42:12;;;;;;;41.50;22.80;;;12.70;99.90;;;;;;4992897;28;20874;-49
2021/03/03 09:44:48;;;;;;;34.83;23.60;;;12.20;99.90;;;;;;4997226;28;20465;-50
2021/03/03 09:47:25;;;;;;;32.13;21.47;;;11.80;99.90;;;;;;5002139;28;20850;-48
2021/03/03 09:49:55;;;;;;;31.90;21.03;;;12.90;99.90;;;;;;5010276;28;20822;-48
2021/03/03 09:52:24;;;;;;;31.67;21.47;;;13.60;99.90;;;;;;5022608;23;21032;-50
2021/03/03 09:54:53;;;;;;;38.57;22.67;;;13.50;99.90;;;;;;4984228;23;20820;-47
2021/03/03 09:57:24;;;;;;;39.17;22.23;;;13.20;99.90;;;;;;4976954;28;20811;-48
2021/03/03 09:59:54;;;;;;;33.07;21.80;;;13.60;99.90;;;;;;4975720;28;20966;-50
2021/03/03 10:02:26;;;;;;;34.47;22.77;;;14.60;99.90;;;;;;4973368;28;20837;-47
2021/03/03 10:04:54;;;;;;;31.60;20.57;;;15.60;97.90;;;;;;4978606;28;20846;-49
2021/03/03 10:07:24;;;;;;;36.63;21.40;;;16.90;94.90;;;;;;4977666;28;20474;-49
2021/03/03 10:09:55;;;;;;;38.10;20.50;;;18.30;87.30;;;;;;4976432;28;20514;-54
2021/03/03 10:12:25;;;;;;;32.47;22.27;;;19.30;76.70;;;;;;4976997;28;20816;-50
2021/03/03 10:15:00;;;;;;;31.40;21.97;;;20.00;69.60;;;;;;4976949;28;20462;-52
2021/03/03 10:17:32;;;;;;;30.27;22.87;;;20.40;66.70;;;;;;4976267;28;20874;-48
2021/03/03 10:20:01;;;;;;;33.80;22.03;;;21.20;60.80;;;;;;4975361;28;20492;-56
2021/03/03 10:22:28;;;;;;;31.13;22.13;;;21.40;58.50;;;;;;4974465;28;20987;-55
2021/03/03 10:25:01;;;;;;;28.37;20.93;;;21.60;57.20;;;;;;4976000;28;20467;-54
2021/03/03 10:27:35;;;;;;;27.67;22.00;;;21.80;55.70;;;;;;4976040;28;20812;-53
2021/03/03 10:30:22;;;;;;;28.10;20.70;;;21.60;55.00;;;;;;4975329;28;20865;-55
2021/03/03 10:32:53;;;;;;;28.33;20.20;;;21.50;55.00;;;;;;4976234;28;20455;-56
2021/03/03 10:35:22;;;;;;;27.03;20.30;;;21.60;54.10;;;;;;4976478;28;20458;-53
2021/03/03 10:37:50;;;;;;;28.87;19.77;;;21.40;53.80;;;;;;4977391;28;20799;-55
2021/03/03 10:40:20;;;;;;;27.70;20.50;;;21.20;53.80;;;;;;4976481;28;20792;-55
2021/03/03 10:42:49;;;;;;;31.27;20.77;;;21.20;53.60;;;;;;4975636;28;20772;-55
2021/03/03 10:45:25;;;;;;;30.27;20.63;;;21.00;54.10;;;;;;4976215;28;20796;-56
2021/03/03 10:47:55;;;;;;;30.47;21.13;;;21.10;54.00;;;;;;4976014;28;20851;-57
2021/03/03 10:50:23;;;;;;;31.57;19.60;;;21.30;53.60;;;;;;4975144;28;20902;-56
2021/03/03 10:52:56;;;;;;;26.37;19.80;;;21.00;54.10;;;;;;4975586;28;20822;-55
2021/03/03 10:55:27;;;;;;;30.60;22.47;;;20.80;54.50;;;;;;4972365;28;20827;-55
2021/03/03 10:58:12;;;;;;;36.80;23.30;;;20.50;54.80;;;;;;4975514;28;20789;-53
2021/03/03 11:01:10;;;;;;;32.33;22.00;;;20.40;55.30;;;;;;4974198;28;20545;-54
2021/03/03 11:03:52;;;;;;;28.17;20.97;;;20.20;55.70;;;;;;4966795;28;20805;-55
2021/03/03 11:06:22;;;;;;;32.90;22.33;;;20.10;56.30;;;;;;4957508;28;20834;-56
2021/03/03 11:08:50;;;;;;;35.50;22.00;;;19.60;56.70;;;;;;4954836;28;20904;-57
2021/03/03 11:11:19;;;;;;;31.77;21.03;;;19.20;57.50;;;;;;4956589;28;20877;-59
2021/03/03 11:13:47;;;;;;;32.77;20.50;;;19.00;58.50;;;;;;4957340;28;20984;-55
2021/03/03 11:16:15;;;;;;;35.93;22.90;;;18.70;58.90;;;;;;4957181;28;20821;-58
2021/03/03 11:18:44;;;;;;;36.20;23.00;;;18.40;60.30;;;;;;4956394;28;20543;-57
2021/03/03 11:21:14;;;;;;;36.87;24.70;;;18.10;61.00;;;;;;4957619;28;20781;-55
2021/03/03 11:23:42;;;;;;;32.60;21.67;;;17.60;62.20;;;;;;4957283;28;20995;-56
2021/03/03 11:26:11;;;;;;;33.50;22.33;;;17.10;63.90;;;;;;4957634;29;20983;-54
2021/03/03 11:28:39;;;;;;;31.87;21.10;;;16.80;65.60;;;;;;4957838;29;20813;-54
2021/03/03 11:31:08;;;;;;;29.23;21.37;;;16.50;67.10;;;;;;4957768;29;20456;-55
2021/03/03 11:33:37;;;;;;;36.93;23.40;;;16.20;68.80;;;;;;4957332;29;20527;-58
2021/03/03 11:36:06;;;;;;;30.33;22.13;;;15.90;70.00;;;;;;4955877;28;20954;-56
2021/03/03 11:38:36;;;;;;;35.63;22.37;;;15.60;72.10;;;;;;4957336;28;20455;-54
2021/03/03 11:41:04;;;;;;;40.00;22.67;;;15.30;74.20;;;;;;4957915;28;20455;-56
2021/03/03 11:43:32;;;;;;;33.40;22.93;;;15.10;76.40;;;;;;4957300;29;20796;-56
2021/03/03 11:46:01;;;;;;;42.50;24.73;;;15.00;78.40;;;;;;4957931;29;20845;-57
2021/03/03 11:48:30;;;;;;;32.03;21.70;;;14.90;80.80;;;;;;4957692;29;21015;-56
2021/03/03 11:50:58;;;;;;;36.47;23.00;;;14.90;82.30;;;;;;4958279;29;20797;-57
2021/03/03 11:53:26;;;;;;;44.93;22.13;;;14.80;85.80;;;;;;4957698;28;20788;-56
2021/03/03 11:55:56;;;;;;;35.70;20.70;;;14.60;88.90;;;;;;4958056;28;20771;-56
2021/03/03 11:58:24;;;;;;;36.40;22.33;;;14.50;90.40;;;;;;4957726;28;20523;-59
2021/03/03 12:00:53;;;;;;;36.97;22.03;;;14.40;91.90;;;;;;4957768;28;20881;-57
2021/03/03 12:03:20;;;;;;;39.10;23.80;;;14.40;93.20;;;;;;4957322;29;21046;-58
2021/03/03 12:05:49;;;;;;;38.57;21.97;;;14.30;94.50;;;;;;4957635;29;20797;-56
2021/03/03 12:08:17;;;;;;;31.50;21.60;;;14.40;94.80;;;;;;4957459;28;20464;-57
2021/03/03 12:10:45;;;;;;;29.97;19.00;;;14.50;94.90;;;;;;4957833;29;20813;-52
2021/03/03 12:13:15;;;;;;;30.40;19.27;;;14.50;95.20;;;;;;4957692;29;20547;-60
2021/03/03 12:15:43;;;;;;;32.57;19.20;;;14.60;95.10;;;;;;4957422;29;20780;-55
2021/03/03 12:18:12;;;;;;;33.30;21.00;;;14.60;95.80;;;;;;4957713;29;20814;-57
2021/03/03 12:20:43;;;;;;;31.63;19.63;;;14.60;95.50;;;;;;4957042;29;20542;-56
2021/03/03 12:23:11;;;;;;;28.50;19.73;;;14.60;96.10;;;;;;4957261;28;20508;-58
2021/03/03 12:25:39;;;;;;;31.13;20.67;;;14.60;96.60;;;;;;4957008;29;20831;-56
2021/03/03 12:28:08;;;;;;;30.20;20.07;;;14.70;96.50;;;;;;4957231;29;20789;-58
2021/03/03 12:30:38;;;;;;;31.37;19.87;;;14.80;96.60;;;;;;4957273;29;20789;-54
2021/03/03 12:33:06;;;;;;;26.80;16.80;;;14.90;96.30;;;;;;4957163;28;20471;-56
2021/03/03 12:35:35;;;;;;;30.00;17.83;;;14.90;95.80;;;;;;4956762;28;20796;-57
2021/03/03 12:38:03;;;;;;;28.27;19.07;;;15.00;95.20;;;;;;4956857;29;20853;-57
2021/03/03 12:40:31;;;;;;;29.97;18.90;;;15.00;95.00;;;;;;4957142;28;20863;-57
2021/03/03 12:43:00;;;;;;;24.33;15.90;;;15.00;94.70;;;;;;4956987;29;20484;-57
2021/03/03 12:45:28;;;;;;;25.67;17.07;;;15.10;94.90;;;;;;4956904;29;20820;-58
2021/03/03 12:47:58;;;;;;;27.03;17.93;;;15.10;94.80;;;;;;4959357;28;20766;-57
2021/03/03 12:50:26;;;;;;;27.37;16.83;;;15.00;94.40;;;;;;4960750;29;20479;-58
2021/03/03 12:52:55;;;;;;;28.63;19.10;;;15.00;94.70;;;;;;4960981;28;20762;-58
2021/03/03 12:55:23;;;;;;;31.00;19.43;;;15.00;95.20;;;;;;4960667;29;20821;-61
2021/03/03 12:57:51;;;;;;;22.80;15.47;;;15.00;95.50;;;;;;4960796;28;20917;-55
2021/03/03 13:00:20;;;;;;;27.63;19.37;;;15.20;95.50;;;;;;4960745;28;20856;-59
2021/03/03 13:02:48;;;;;;;25.77;17.20;;;15.20;94.60;;;;;;4960229;29;20767;-58
2021/03/03 13:05:18;;;;;;;29.17;18.17;;;15.20;94.40;;;;;;4960298;28;20792;-55
2021/03/03 13:07:46;;;;;;;28.37;16.67;;;15.30;94.10;;;;;;4961570;28;20890;-56
2021/03/03 13:10:15;;;;;;;24.73;16.17;;;15.20;94.00;;;;;;4976543;28;20474;-57
2021/03/03 13:12:43;;;;;;;23.23;16.47;;;15.20;94.30;;;;;;4976044;28;20451;-55
2021/03/03 13:15:13;;;;;;;27.50;15.57;;;15.20;94.20;;;;;;4967752;28;20844;-56
2021/03/03 13:17:41;;;;;;;25.87;15.70;;;15.30;94.30;;;;;;4970316;28;20789;-53
2021/03/03 13:20:11;;;;;;;25.07;15.80;;;15.50;94.50;;;;;;4971103;28;20797;-53
2021/03/03 13:22:39;;;;;;;29.00;16.80;;;15.70;94.70;;;;;;4968483;28;20789;-54
2021/03/03 13:25:07;;;;;;;25.70;16.03;;;15.90;93.60;;;;;;4970191;28;20455;-57
2021/03/03 13:27:37;;;;;;;25.00;17.47;;;16.00;92.80;;;;;;4970723;28;20837;-58
2021/03/03 13:30:06;;;;;;;24.30;16.80;;;16.00;92.70;;;;;;4973111;28;20949;-57
2021/03/03 13:32:33;;;;;;;27.73;16.60;;;16.00;92.60;;;;;;4972934;28;20466;-54
2021/03/03 13:35:02;;;;;;;20.47;13.93;;;16.10;92.70;;;;;;4974210;28;20485;-54
2021/03/03 13:37:31;;;;;;;20.10;15.60;;;16.10;92.60;;;;;;4970645;28;20789;-58
2021/03/03 13:40:00;;;;;;;23.00;15.33;;;16.00;92.90;;;;;;4969054;28;20816;-57
2021/03/03 13:42:30;;;;;;;25.47;16.27;;;15.90;93.30;;;;;;4969865;28;20804;-57
2021/03/03 13:44:59;;;;;;;24.40;15.80;;;15.80;93.60;;;;;;4968774;28;20792;-58
2021/03/03 13:47:26;;;;;;;33.93;17.80;;;15.70;93.50;;;;;;4961783;28;20482;-56
2021/03/03 13:49:54;;;;;;;25.93;16.90;;;15.70;94.20;;;;;;4971687;28;20793;-60
2021/03/03 13:52:21;;;;;;;27.87;17.40;;;15.60;94.80;;;;;;4970001;28;20775;-58
2021/03/03 13:54:50;;;;;;;25.43;17.97;;;15.40;95.00;;;;;;4972563;28;20486;-58
2021/03/03 13:57:19;;;;;;;27.77;17.77;;;15.30;95.70;;;;;;4977899;28;20804;-57
2021/03/03 13:59:47;;;;;;;29.40;17.10;;;15.20;96.40;;;;;;4964067;28;20578;-58
2021/03/03 14:02:16;;;;;;;26.30;16.00;;;15.20;97.40;;;;;;4978504;28;20773;-56
2021/03/03 14:04:44;;;;;;;25.17;15.00;;;15.40;98.00;;;;;;4978606;28;20781;-58
2021/03/03 14:07:13;;;;;;;27.37;15.27;;;15.50;97.60;;;;;;4978959;28;20932;-58
2021/03/03 14:09:42;;;;;;;26.80;17.07;;;15.70;97.30;;;;;;4978576;28;20886;-55
2021/03/03 14:12:14;;;;;;;23.70;15.33;;;15.90;96.90;;;;;;4978366;28;20764;-57
2021/03/03 14:14:44;;;;;;;31.67;15.70;;;16.00;96.60;;;;;;4978080;28;20796;-56
2021/03/03 14:17:12;;;;;;;26.23;16.60;;;16.10;96.10;;;;;;4979849;28;20787;-57
2021/03/03 14:19:40;;;;;;;29.93;18.00;;;16.10;95.40;;;;;;4982135;28;20783;-58
2021/03/03 14:22:08;;;;;;;23.23;16.07;;;16.20;95.10;;;;;;4965519;28;20772;-59
2021/03/03 14:24:37;;;;;;;23.87;17.13;;;16.10;95.50;;;;;;4977184;28;20889;-59
2021/03/03 14:27:07;;;;;;;22.50;14.60;;;16.10;96.00;;;;;;4976920;28;20816;-60
2021/03/03 14:29:35;;;;;;;25.00;15.83;;;16.00;96.20;;;;;;4972132;28;20772;-59
2021/03/03 14:32:05;;;;;;;25.37;16.47;;;16.00;96.20;;;;;;4976300;28;20781;-59
2021/03/03 14:34:36;;;;;;;24.53;16.57;;;16.00;96.00;;;;;;4977123;28;20454;-62
2021/03/03 14:37:04;;;;;;;26.70;16.17;;;16.00;96.10;;;;;;4973962;28;20849;-59
2021/03/03 14:39:33;;;;;;;31.53;18.90;;;16.00;96.40;;;;;;4977308;28;20827;-57